Time;durP1;ratioP1;P1;durP2;ratioP2;P2;SDS_P1;SDS_P2;PMS_P1;PMS_P2;Temp;Humidity;BMP_temperature;BMP_pressure;BME280_temperature;BME280_humidity;BME280_pressure;Samples;Min_cycle;Max_cycle;Signal;HPM_P1;HPM_P2
2022/06/14 00:02:00;;;;;;;84.10;32.85;;;;;;;17.15;81.40;99156.22;5040502;28;20151;-68
2022/06/14 00:04:26;;;;;;;72.18;30.85;;;;;;;17.17;81.31;99161.38;5047140;28;20044;-68
2022/06/14 00:06:52;;;;;;;75.60;31.25;;;;;;;17.12;81.48;99163.22;5045906;28;20079;-68
2022/06/14 00:09:18;;;;;;;68.50;29.92;;;;;;;17.09;81.24;99168.59;5044416;28;20064;-67
2022/06/14 00:11:46;;;;;;;72.10;30.98;;;;;;;17.00;81.29;99147.38;5044033;28;20059;-68
2022/06/14 00:14:13;;;;;;;76.60;29.67;;;;;;;17.02;81.77;99160.84;5043928;28;20049;-67
2022/06/14 00:16:39;;;;;;;70.07;30.87;;;;;;;16.96;81.68;99156.63;5047512;28;20049;-67
2022/06/14 00:19:06;;;;;;;91.27;29.90;;;;;;;16.90;81.69;99157.97;5027977;28;20782;-68
2022/06/14 00:21:33;;;;;;;75.25;31.00;;;;;;;16.85;82.05;99158.94;5045824;28;20115;-67
2022/06/14 00:24:01;;;;;;;63.60;29.60;;;;;;;16.81;82.07;99161.56;5028656;28;20068;-67
2022/06/14 00:26:27;;;;;;;72.97;32.25;;;;;;;16.81;81.72;99158.81;5043867;28;20057;-67
2022/06/14 00:28:55;;;;;;;76.43;32.72;;;;;;;16.78;81.68;99158.66;5062162;28;20052;-67
2022/06/14 00:31:22;;;;;;;;;;;;;;;16.78;81.81;99159.47;5062855;28;20084;-67
2022/06/14 00:33:48;;;;;;;;;;;;;;;16.76;81.70;99156.25;5048042;28;19978;-68
2022/06/14 00:36:22;;;;;;;75.05;33.33;;;;;;;16.76;81.53;99152.66;5044266;28;19924;-67
2022/06/14 00:38:48;;;;;;;80.25;33.85;;;;;;;16.76;81.78;99153.47;5044157;28;20088;-67
2022/06/14 00:41:32;;;;;;;83.30;33.65;;;;;;;16.77;81.77;99151.50;5043186;28;20041;-66
2022/06/14 00:44:00;;;;;;;95.78;34.70;;;;;;;16.71;82.08;99154.47;5043565;28;20048;-66
2022/06/14 00:46:33;;;;;;;71.10;32.45;;;;;;;16.70;81.93;99152.84;5044444;28;20515;-68
2022/06/14 00:49:05;;;;;;;84.18;34.60;;;;;;;16.67;81.98;99149.94;5026980;28;20037;-68
2022/06/14 00:51:37;;;;;;;87.25;34.58;;;;;;;16.64;82.08;99154.19;5041970;28;20063;-67
2022/06/14 00:54:10;;;;;;;89.55;35.80;;;;;;;16.60;82.12;99150.44;5042616;28;20048;-66
2022/06/14 00:56:42;;;;;;;90.65;36.95;;;;;;;16.57;82.38;99143.66;5042237;28;20091;-67
2022/06/14 00:59:14;;;;;;;77.03;36.45;;;;;;;16.57;82.40;99137.31;5043670;28;20053;-67
2022/06/14 01:01:42;;;;;;;74.55;32.63;;;;;;;16.58;82.32;99139.75;5042988;28;20049;-67
2022/06/14 01:04:15;;;;;;;84.85;35.08;;;;;;;16.59;82.36;99146.91;5043896;28;20071;-66
2022/06/14 01:06:50;;;;;;;81.75;34.45;;;;;;;16.57;82.49;99148.34;5042852;28;20048;-67
2022/06/14 01:09:21;;;;;;;73.60;33.65;;;;;;;16.53;82.69;99150.97;5041528;28;20048;-66
2022/06/14 01:11:50;;;;;;;81.00;34.45;;;;;;;16.50;82.64;99157.16;5041354;28;20131;-67
2022/06/14 01:14:22;;;;;;;86.38;35.67;;;;;;;16.48;82.78;99155.88;5043612;28;20049;-66
2022/06/14 01:16:50;;;;;;;77.65;36.13;;;;;;;16.45;82.58;99157.34;5044057;28;20098;-67
2022/06/14 01:19:20;;;;;;;89.85;35.85;;;;;;;16.42;82.81;99153.28;5042782;28;20547;-67
2022/06/14 01:22:22;;;;;;;84.57;35.75;;;;;;;16.41;82.94;99153.63;5045615;28;20052;-68
2022/06/14 01:24:49;;;;;;;90.38;36.13;;;;;;;16.48;83.05;99159.44;5056394;28;20072;-67
2022/06/14 01:27:17;;;;;;;82.45;35.85;;;;;;;16.51;82.77;99158.75;5063329;28;20048;-68
2022/06/14 01:29:54;;;;;;;85.53;38.45;;;;;;;16.52;82.64;99154.06;5060098;28;20064;-67
2022/06/14 01:32:21;;;;;;;79.18;35.80;;;;;;;16.56;82.74;99158.59;5060988;28;20047;-67
2022/06/14 01:34:52;;;;;;;80.20;37.25;;;;;;;16.59;82.70;99160.69;5062343;28;20068;-66
2022/06/14 01:37:20;;;;;;;93.90;40.53;;;;;;;16.58;82.47;99156.31;5062661;28;20036;-67
2022/06/14 01:39:47;;;;;;;87.82;40.75;;;;;;;16.58;82.70;99164.59;5060852;28;20051;-67
2022/06/14 01:42:22;;;;;;;83.30;39.53;;;;;;;16.57;82.41;99151.94;5042994;28;20516;-67
2022/06/14 01:44:58;;;;;;;105.03;43.47;;;;;;;16.61;82.45;99160.34;5062738;28;20055;-67
2022/06/14 01:47:31;;;;;;;110.85;44.47;;;;;;;16.63;82.88;99165.53;5065023;28;20485;-66
2022/06/14 01:53:17;;;;;;;111.30;50.60;;;;;;;16.64;82.65;99173.50;5006716;28;20080;-66
2022/06/14 01:55:51;;;;;;;117.43;48.05;;;;;;;16.68;82.55;99174.47;5042861;28;20052;-66
2022/06/14 01:58:24;;;;;;;122.75;50.83;;;;;;;16.76;82.39;99171.97;5043960;28;20153;-67
2022/06/14 02:00:55;;;;;;;121.47;47.67;;;;;;;16.83;82.15;99175.84;5043021;28;20045;-65
2022/06/14 02:06:20;;;;;;;133.18;55.78;;;;;;;16.85;81.97;99179.06;5040938;28;20051;-66
2022/06/14 02:08:52;;;;;;;132.77;54.70;;;;;;;16.83;82.10;99170.31;5044618;28;20056;-67
2022/06/14 02:11:24;;;;;;;125.88;50.85;;;;;;;16.84;82.29;99174.69;5041547;28;20582;-67
2022/06/14 02:13:54;;;;;;;129.30;50.70;;;;;;;16.88;81.84;99174.84;5041459;28;20049;-67
2022/06/14 02:16:27;;;;;;;128.50;51.55;;;;;;;16.91;81.82;99170.63;5041717;28;20059;-67
2022/06/14 02:18:59;;;;;;;140.95;55.00;;;;;;;16.97;81.68;99177.56;5042141;28;20048;-66
2022/06/14 02:21:31;;;;;;;148.30;58.50;;;;;;;17.02;82.11;99180.19;5046336;28;20041;-67
2022/06/14 02:24:03;;;;;;;135.70;54.10;;;;;;;17.04;81.86;99175.13;5061948;28;20048;-67
2022/06/14 02:26:34;;;;;;;143.40;57.10;;;;;;;17.11;81.76;99169.88;5043516;28;20424;-67
2022/06/14 02:29:08;;;;;;;137.30;58.95;;;;;;;17.14;81.46;99176.69;5060870;28;20578;-68
2022/06/14 02:31:37;;;;;;;134.35;54.45;;;;;;;17.17;81.54;99177.97;5060043;28;20454;-67
2022/06/14 02:34:08;;;;;;;144.68;60.30;;;;;;;17.23;81.65;99174.66;5063052;28;20043;-66
2022/06/14 02:36:39;;;;;;;135.25;56.85;;;;;;;17.31;81.38;99173.00;5058513;28;20383;-66
2022/06/14 02:39:09;;;;;;;139.98;54.65;;;;;;;17.38;80.80;99166.94;5062530;28;20423;-67
2022/06/14 02:41:41;;;;;;;139.88;56.83;;;;;;;17.42;80.60;99165.13;5061357;28;20511;-68
2022/06/14 02:44:12;;;;;;;140.40;56.95;;;;;;;17.42;80.58;99162.38;5062281;28;20060;-67
2022/06/14 02:46:44;;;;;;;155.35;57.72;;;;;;;17.44;80.24;99160.09;5057139;28;20157;-67
2022/06/14 02:49:15;;;;;;;142.43;53.20;;;;;;;17.47;80.40;99164.94;5063942;28;20147;-67
2022/06/14 02:51:45;;;;;;;141.23;56.17;;;;;;;17.50;80.46;99167.00;5063138;28;20141;-67
2022/06/14 02:54:15;;;;;;;140.18;55.58;;;;;;;17.49;80.13;99162.63;5063892;28;20040;-67
2022/06/14 02:56:47;;;;;;;145.85;58.28;;;;;;;17.46;80.65;99157.78;5043032;28;20060;-67
2022/06/14 02:59:21;;;;;;;152.90;62.17;;;;;;;17.47;80.60;99162.16;5060056;28;20446;-67
2022/06/14 03:01:52;;;;;;;162.10;61.55;;;;;;;17.48;80.52;99162.97;5061231;28;20511;-67
2022/06/14 03:04:24;;;;;;;151.68;61.70;;;;;;;17.53;80.72;99154.50;5028464;28;20049;-72
2022/06/14 03:06:58;;;;;;;161.30;62.92;;;;;;;17.56;80.25;99157.38;5042979;28;20127;-73
2022/06/14 03:09:30;;;;;;;160.23;60.08;;;;;;;17.67;80.06;99154.19;5044953;28;20063;-73
2022/06/14 03:12:09;;;;;;;152.05;60.58;;;;;;;17.79;79.49;99151.50;5040031;28;20049;-73
2022/06/14 03:14:47;;;;;;;155.23;61.38;;;;;;;17.93;79.21;99159.47;5042726;28;20134;-73
2022/06/14 03:17:20;;;;;;;146.38;62.50;;;;;;;18.09;78.83;99156.94;5047223;28;20137;-73
2022/06/14 03:19:54;;;;;;;149.95;61.95;;;;;;;18.21;78.15;99147.06;5042365;28;20061;-74
2022/06/14 03:22:34;;;;;;;143.85;61.83;;;;;;;18.42;77.41;99150.53;5045950;28;20530;-72
2022/06/14 03:25:08;;;;;;;140.15;62.10;;;;;;;18.59;76.94;99156.22;5061711;28;20056;-73
2022/06/14 03:27:38;;;;;;;165.85;66.60;;;;;;;18.63;76.63;99163.47;5062980;28;20466;-73
2022/06/14 03:30:10;;;;;;;151.48;65.05;;;;;;;18.66;76.46;99162.81;5059926;28;20483;-73
2022/06/14 03:32:45;;;;;;;145.13;62.97;;;;;;;18.69;76.38;99159.34;5061809;28;20051;-73
2022/06/14 03:35:26;;;;;;;156.85;63.20;;;;;;;18.69;76.14;99161.28;5063097;28;20048;-72
2022/06/14 03:37:53;;;;;;;142.32;62.45;;;;;;;18.64;76.28;99156.00;5061747;28;20091;-73
2022/06/14 03:40:23;;;;;;;137.93;59.85;;;;;;;18.60;76.62;99155.88;5063402;28;20086;-72
2022/06/14 03:42:51;;;;;;;152.70;63.55;;;;;;;18.65;76.56;99154.84;5063803;28;20473;-72
2022/06/14 03:45:23;;;;;;;146.93;63.53;;;;;;;18.69;76.51;99159.34;5065707;28;20511;-72
2022/06/14 03:47:49;;;;;;;138.13;60.25;;;;;;;18.81;76.27;99158.53;5064225;28;20044;-72
2022/06/14 03:50:29;;;;;;;160.13;61.85;;;;;;;18.96;75.91;99161.75;5044623;28;20040;-74
2022/06/14 03:53:16;;;;;;;152.88;62.50;;;;;;;19.04;75.54;99163.63;5056102;28;20408;-72
2022/06/14 03:56:00;;;;;;;133.95;58.05;;;;;;;19.06;75.23;99168.81;5041219;28;20041;-72
2022/06/14 03:58:58;;;;;;;117.53;53.83;;;;;;;19.10;75.08;99165.03;5050473;28;20044;-72
2022/06/14 04:01:28;;;;;;;132.45;57.53;;;;;;;19.21;74.73;99170.09;5012315;28;20080;-72
2022/06/14 04:04:13;;;;;;;129.43;55.15;;;;;;;19.28;74.48;99175.84;5044842;28;20136;-72
2022/06/14 04:06:50;;;;;;;134.40;56.95;;;;;;;19.31;74.52;99177.13;5037176;28;20044;-74
2022/06/14 04:09:36;;;;;;;131.15;52.67;;;;;;;19.22;74.52;99160.63;5056626;28;20068;-73
2022/06/14 04:12:15;;;;;;;131.27;56.50;;;;;;;19.21;74.73;99167.31;5034229;28;20059;-72
2022/06/14 04:15:03;;;;;;;145.90;58.05;;;;;;;19.15;75.21;99171.47;5043841;28;20065;-73
2022/06/14 04:17:40;;;;;;;133.15;55.30;;;;;;;19.05;74.97;99168.03;5043516;28;20136;-74
2022/06/14 04:20:14;;;;;;;142.50;57.53;;;;;;;19.05;75.33;99165.25;5042540;28;20511;-72
2022/06/14 04:22:50;;;;;;;119.32;53.80;;;;;;;19.01;75.43;99161.56;5054950;28;20048;-73
2022/06/14 04:25:27;;;;;;;119.00;52.22;;;;;;;19.07;74.84;99160.19;5055991;28;20044;-72
2022/06/14 04:27:58;;;;;;;113.93;50.90;;;;;;;19.20;74.76;99158.19;5027746;28;20114;-73
2022/06/14 04:30:30;;;;;;;113.82;51.95;;;;;;;19.30;73.94;99156.91;5045446;28;20360;-75
2022/06/14 04:33:05;;;;;;;124.18;51.33;;;;;;;19.40;73.94;99155.59;5044928;28;20056;-73
2022/06/14 04:35:36;;;;;;;118.57;49.92;;;;;;;19.47;73.29;99161.38;5042561;28;20080;-74
2022/06/14 04:38:08;;;;;;;131.45;52.80;;;;;;;19.59;72.90;99151.38;5045432;28;20409;-73
2022/06/14 04:40:40;;;;;;;115.80;51.25;;;;;;;19.69;72.68;99151.72;5046918;28;20059;-68
2022/06/14 04:43:09;;;;;;;121.15;54.63;;;;;;;19.79;72.24;99152.34;5061925;28;20546;-68
2022/06/14 04:45:41;;;;;;;120.65;50.20;;;;;;;19.98;71.89;99155.31;5064245;28;20392;-67
2022/06/14 04:48:12;;;;;;;125.85;52.90;;;;;;;20.18;71.35;99157.41;5064502;28;20422;-67
2022/06/14 04:50:42;;;;;;;127.32;55.88;;;;;;;20.34;70.80;99157.44;5061885;28;20491;-67
2022/06/14 04:53:14;;;;;;;130.95;54.05;;;;;;;20.41;70.39;99154.84;5051451;28;20049;-67
2022/06/14 04:55:45;;;;;;;116.65;51.63;;;;;;;20.42;70.43;99156.44;5064181;28;20071;-67
2022/06/14 04:58:16;;;;;;;118.35;54.17;;;;;;;20.39;70.04;99151.63;5047517;28;20049;-67
2022/06/14 05:00:49;;;;;;;111.85;52.75;;;;;;;20.41;70.14;99163.16;5063390;28;20076;-69
2022/06/14 05:03:22;;;;;;;102.53;49.22;;;;;;;20.36;69.61;99163.44;5053703;28;20144;-67
2022/06/14 05:05:53;;;;;;;107.57;50.00;;;;;;;20.41;69.53;99149.28;5041560;28;20064;-67
2022/06/14 05:08:24;;;;;;;110.70;48.63;;;;;;;20.46;69.43;99157.38;5042624;28;20427;-67
2022/06/14 05:10:58;;;;;;;106.57;46.90;;;;;;;20.53;68.76;99157.53;5039380;28;20045;-65
2022/06/14 05:13:32;;;;;;;94.00;45.80;;;;;;;20.60;68.48;99154.13;5047154;28;20047;-66
2022/06/14 05:16:05;;;;;;;109.38;49.42;;;;;;;20.67;68.10;99153.50;5057121;28;20055;-67
2022/06/14 05:18:35;;;;;;;101.32;46.13;;;;;;;20.75;68.14;99143.38;5039488;28;20049;-67
2022/06/14 05:21:08;;;;;;;102.75;50.38;;;;;;;20.88;67.80;99138.53;5042286;28;20051;-67
2022/06/14 05:23:44;;;;;;;109.93;50.25;;;;;;;20.94;67.13;99142.69;5041410;28;20354;-67
2022/06/14 05:26:20;;;;;;;102.55;50.25;;;;;;;21.00;66.76;99143.22;5043292;28;20071;-68
2022/06/14 05:28:59;;;;;;;91.93;46.47;;;;;;;21.04;66.92;99144.88;5047372;28;20076;-69
2022/06/14 05:31:35;;;;;;;111.18;54.88;;;;;;;21.11;66.44;99147.84;5042018;28;20575;-67
2022/06/14 05:34:07;;;;;;;119.82;55.47;;;;;;;21.22;66.51;99145.28;5046327;28;20060;-73
2022/06/14 05:36:38;;;;;;;126.57;55.72;;;;;;;21.34;65.79;99140.78;5042495;28;20079;-74
2022/06/14 05:39:13;;;;;;;99.80;50.45;;;;;;;21.29;65.78;99138.28;5042804;28;20068;-73
2022/06/14 05:41:42;;;;;;;103.60;46.45;;;;;;;21.46;65.61;99139.84;5027229;28;20044;-73
2022/06/14 05:44:10;;;;;;;88.15;44.70;;;;;;;21.61;64.86;99138.97;5044827;28;20045;-72
2022/06/14 05:46:43;;;;;;;78.00;44.90;;;;;;;21.66;64.39;99138.69;5042204;28;20064;-72
2022/06/14 05:49:14;;;;;;;99.95;43.50;;;;;;;21.72;64.04;99128.09;5044124;28;20072;-73
2022/06/14 05:51:45;;;;;;;65.03;32.63;;;;;;;21.95;63.09;99135.69;5052671;28;20063;-73
2022/06/14 05:54:18;;;;;;;58.47;26.35;;;;;;;22.00;62.56;99126.22;5063921;28;20131;-73
2022/06/14 05:56:52;;;;;;;51.03;23.33;;;;;;;22.14;61.66;99129.25;5053932;28;20049;-74
2022/06/14 05:59:31;;;;;;;44.88;23.42;;;;;;;22.31;61.18;99128.00;5047527;28;20051;-74
2022/06/14 06:02:14;;;;;;;45.20;20.40;;;;;;;22.43;60.05;99118.63;5042192;28;20048;-72
2022/06/14 06:04:46;;;;;;;39.15;18.75;;;;;;;22.53;59.78;99117.22;5043880;28;20049;-73
2022/06/14 06:07:14;;;;;;;37.80;19.45;;;;;;;22.65;59.08;99116.25;5025325;28;20415;-73
2022/06/14 06:09:47;;;;;;;40.47;19.83;;;;;;;22.71;58.59;99113.94;5043792;28;20049;-73
2022/06/14 06:12:19;;;;;;;46.55;19.05;;;;;;;22.78;58.23;99108.47;5044074;28;20143;-73
2022/06/14 06:14:51;;;;;;;39.83;17.30;;;;;;;22.89;57.62;99108.63;5043950;28;20044;-73
2022/06/14 06:17:23;;;;;;;40.92;16.98;;;;;;;22.98;56.85;99120.34;5024581;28;20143;-74
2022/06/14 06:19:59;;;;;;;47.65;21.52;;;;;;;22.90;57.06;99113.03;5057445;28;20060;-74
2022/06/14 06:22:33;;;;;;;52.33;21.42;;;;;;;22.99;57.50;99116.38;5064134;28;20098;-73
2022/06/14 06:25:08;;;;;;;44.67;20.52;;;;;;;23.18;57.04;99109.88;5048908;28;20446;-74
2022/06/14 06:27:39;;;;;;;38.05;20.60;;;;;;;23.40;56.41;99112.13;5061395;28;20056;-75
2022/06/14 06:30:13;;;;;;;46.92;21.05;;;;;;;23.50;56.51;99109.50;5052498;28;20075;-74
2022/06/14 06:32:41;;;;;;;47.88;22.05;;;;;;;23.51;56.05;99101.94;5020103;28;20116;-74
2022/06/14 06:35:09;;;;;;;43.15;23.25;;;;;;;23.58;55.63;99106.78;5056308;28;20044;-74
2022/06/14 06:37:41;;;;;;;42.20;21.13;;;;;;;23.68;55.49;99099.72;5055954;28;20068;-73
2022/06/14 06:40:15;;;;;;;43.75;21.00;;;;;;;23.88;55.57;99109.53;5048757;28;20411;-74
2022/06/14 06:42:46;;;;;;;46.15;23.15;;;;;;;24.10;54.95;99098.63;5026949;28;20459;-74
2022/06/14 06:45:17;;;;;;;42.25;22.40;;;;;;;24.30;54.30;99099.22;5043137;28;20052;-74
2022/06/14 06:47:48;;;;;;;52.85;21.95;;;;;;;24.45;54.55;99100.13;5057844;28;20351;-74
2022/06/14 06:50:21;;;;;;;47.83;23.35;;;;;;;24.56;54.46;99094.63;5062766;28;20074;-74
2022/06/14 06:52:57;;;;;;;57.40;24.75;;;;;;;24.76;54.17;99095.19;5063390;28;20052;-73
2022/06/14 06:55:33;;;;;;;44.47;22.08;;;;;;;24.99;52.79;99105.34;5046302;28;20048;-74
2022/06/14 06:58:01;;;;;;;44.40;18.83;;;;;;;24.97;50.93;99098.53;5063755;28;20050;-74
2022/06/14 07:00:30;;;;;;;38.28;18.38;;;;;;;24.74;51.37;99091.97;5061000;28;20059;-73
2022/06/14 07:03:04;;;;;;;39.83;19.70;;;;;;;24.59;51.99;99085.47;5054704;28;20456;-73
2022/06/14 07:05:30;;;;;;;51.88;20.92;;;;;;;24.47;52.25;99089.34;5045191;28;20060;-74
2022/06/14 07:08:02;;;;;;;41.80;19.85;;;;;;;24.26;53.44;99092.78;5041702;28;20516;-73
2022/06/14 07:10:34;;;;;;;43.75;21.20;;;;;;;24.64;52.81;99090.69;5064694;28;20044;-73
2022/06/14 07:13:05;;;;;;;38.53;18.05;;;;;;;25.14;51.54;99085.84;5065629;28;20519;-74
2022/06/14 07:15:37;;;;;;;37.97;17.45;;;;;;;25.30;49.96;99093.91;5067999;28;20048;-74
2022/06/14 07:18:13;;;;;;;36.55;17.10;;;;;;;25.09;49.94;99091.78;5045132;28;20132;-74
2022/06/14 07:20:51;;;;;;;37.55;16.38;;;;;;;24.78;50.22;99087.22;5045815;28;20048;-74
2022/06/14 07:23:25;;;;;;;42.95;16.17;;;;;;;24.80;50.14;99091.63;5047369;28;20044;-74
2022/06/14 07:26:09;;;;;;;38.10;15.98;;;;;;;24.90;49.89;99088.91;5031474;28;20099;-74
2022/06/14 07:28:45;;;;;;;30.10;14.65;;;;;;;24.82;49.13;99098.44;5049368;28;20389;-74
2022/06/14 07:31:20;;;;;;;32.60;13.90;;;;;;;25.06;48.05;99093.41;5046303;28;20061;-74
2022/06/14 07:33:47;;;;;;;37.08;15.02;;;;;;;25.29;47.00;99098.72;4728821;28;10000454;-74
2022/06/14 07:36:20;;;;;;;29.73;13.60;;;;;;;25.44;46.71;99096.75;5083035;28;20043;-74
2022/06/14 07:38:54;;;;;;;41.67;14.90;;;;;;;25.80;46.63;99087.72;5081780;28;20044;-75
2022/06/14 07:41:28;;;;;;;32.63;15.63;;;;;;;26.04;46.14;99088.16;5061497;28;20059;-75
2022/06/14 07:44:03;;;;;;;35.90;14.55;;;;;;;26.44;45.79;99077.00;5062393;28;20052;-75
2022/06/14 07:46:38;;;;;;;38.05;14.70;;;;;;;26.82;42.64;99074.56;5061621;28;20137;-74
2022/06/14 07:49:12;;;;;;;37.05;13.60;;;;;;;26.73;43.70;99072.19;5062913;28;20135;-74
2022/06/14 07:51:46;;;;;;;29.65;13.95;;;;;;;26.78;42.16;99075.78;5028740;28;20049;-75
2022/06/14 07:54:21;;;;;;;34.08;13.63;;;;;;;26.70;42.33;99069.38;5048692;28;20048;-74
2022/06/14 07:56:52;;;;;;;35.35;12.65;;;;;;;26.80;42.32;99062.97;5044501;28;20041;-74
2022/06/14 07:59:22;;;;;;;29.95;12.07;;;;;;;27.00;42.60;99068.16;5045103;28;20037;-74
2022/06/14 08:01:53;;;;;;;36.40;12.63;;;;;;;27.23;41.11;99080.88;5058550;28;20057;-75
2022/06/14 08:04:26;;;;;;;32.17;12.27;;;;;;;27.35;41.76;99066.41;5068610;28;20070;-74
2022/06/14 08:06:56;;;;;;;34.00;11.88;;;;;;;27.46;41.38;99071.97;5050739;28;20044;-74
2022/06/14 08:09:29;;;;;;;25.60;11.13;;;;;;;27.63;40.76;99066.72;5068143;28;20526;-74
2022/06/14 08:11:58;;;;;;;25.73;10.07;;;;;;;27.81;39.65;99053.38;5064061;28;20056;-75
2022/06/14 08:14:27;;;;;;;28.73;10.57;;;;;;;27.88;39.33;99058.16;5059816;28;20041;-75
2022/06/14 08:16:54;;;;;;;32.90;11.05;;;;;;;27.99;38.80;99061.69;5045904;28;20581;-74
2022/06/14 08:19:29;;;;;;;24.98;9.68;;;;;;;28.02;38.24;99062.88;5026596;28;20110;-74
2022/06/14 08:21:59;;;;;;;24.27;9.55;;;;;;;28.31;38.59;99055.03;5046334;28;20055;-73
2022/06/14 08:24:31;;;;;;;32.10;11.43;;;;;;;28.66;38.33;99060.75;5046440;28;20053;-75
2022/06/14 08:27:03;;;;;;;35.13;12.10;;;;;;;28.72;38.42;99055.47;5051949;28;20055;-74
2022/06/14 08:29:34;;;;;;;30.48;11.40;;;;;;;28.88;38.75;99060.59;5044261;28;20079;-74
2022/06/14 08:32:09;;;;;;;24.30;11.45;;;;;;;28.24;39.15;99054.28;5045783;28;20080;-74
2022/06/14 08:34:41;;;;;;;20.65;11.07;;;;;;;26.93;41.07;99045.72;5045406;28;20131;-74
2022/06/14 08:37:14;;;;;;;36.50;11.77;;;;;;;26.27;43.30;99047.81;5030243;28;20045;-74
2022/06/14 08:39:47;;;;;;;29.25;11.40;;;;;;;26.46;43.17;99050.19;5051322;28;20056;-74
2022/06/14 08:42:21;;;;;;;37.70;12.25;;;;;;;26.83;42.72;99048.13;5066174;28;20594;-74
2022/06/14 08:44:56;;;;;;;24.50;11.85;;;;;;;26.65;43.03;99045.34;5046494;28;20044;-74
2022/06/14 08:47:47;;;;;;;42.42;13.98;;;;;;;26.25;43.50;99053.00;5066603;28;20135;-74
2022/06/14 08:50:44;;;;;;;26.02;11.50;;;;;;;26.84;40.50;99046.13;5065711;28;20046;-74
2022/06/14 08:53:47;;;;;;;25.50;10.43;;;;;;;27.83;38.13;99045.34;5026007;28;20052;-74
2022/06/14 08:56:29;;;;;;;28.38;10.73;;;;;;;28.94;35.47;99029.97;5065010;28;20213;-77
2022/06/14 08:59:28;;;;;;;28.02;9.82;;;;;;;29.75;34.73;99034.16;5032925;28;20455;-75
2022/06/14 09:02:31;;;;;;;27.90;10.93;;;;;;;29.67;34.77;99052.41;5046586;28;20143;-74
2022/06/14 09:05:33;;;;;;;25.42;10.43;;;;;;;29.97;34.06;99023.38;5063890;28;20177;-73
2022/06/14 09:08:48;;;;;;;24.25;10.57;;;;;;;30.46;34.04;99019.34;5032527;28;20471;-74
2022/06/14 09:11:49;;;;;;;26.67;9.88;;;;;;;29.35;34.13;99017.81;5062659;28;20040;-74
2022/06/14 09:14:53;;;;;;;24.25;10.93;;;;;;;28.11;36.91;99014.66;5046301;28;20139;-75
2022/06/14 09:18:02;;;;;;;24.05;10.88;;;;;;;28.99;36.17;99021.06;5046502;28;20152;-75
2022/06/14 09:20:37;;;;;;;24.23;10.27;;;;;;;29.75;33.46;99022.91;4981612;28;20060;-74
2022/06/14 09:23:17;;;;;;;25.98;10.20;;;;;;;29.92;33.32;99028.69;5043236;28;20045;-75
2022/06/14 09:26:01;;;;;;;24.75;9.32;;;;;;;28.86;34.61;99015.19;5050219;28;20044;-75
2022/06/14 09:50:52;;;;;;;19.75;8.20;;;;;;;30.15;31.76;99002.59;5105058;28;20071;-74
2022/06/14 09:54:21;;;;;;;23.25;8.20;;;;;;;30.53;31.11;98979.78;5028264;28;20044;-74
2022/06/14 09:57:14;;;;;;;22.92;7.65;;;;;;;30.48;30.90;98980.25;5030542;28;20547;-74
2022/06/14 10:00:30;;;;;;;27.63;8.40;;;;;;;30.29;31.99;98976.19;5060662;28;20060;-73
2022/06/14 10:03:29;;;;;;;20.30;8.73;;;;;;;31.10;30.12;98971.41;5014362;28;20053;-74
2022/06/14 10:45:37;;;;;;;19.80;7.32;;;;;;;34.82;23.74;98922.75;5032054;28;20060;-74
2022/06/14 10:48:53;;;;;;;20.90;6.63;;;;;;;34.16;24.42;98939.25;5050522;28;20052;-74
2022/06/14 10:51:35;;;;;;;13.60;6.63;;;;;;;32.89;25.86;98933.91;5049512;28;20041;-73
2022/06/14 10:58:35;;;;;;;26.75;7.22;;;;;;;31.81;27.10;98921.44;5050781;28;20530;-73
2022/06/14 11:01:16;;;;;;;25.95;6.70;;;;;;;31.04;28.84;98913.88;5047257;28;20063;-74
2022/06/14 11:03:55;;;;;;;14.48;7.22;;;;;;;30.12;29.76;98914.06;5046468;28;20106;-74
2022/06/14 11:14:15;;;;;;;15.52;6.07;;;;;;;32.55;25.82;98902.13;4988728;28;20057;-72
2022/06/14 11:17:11;;;;;;;20.00;6.68;;;;;;;32.42;25.54;98907.75;4971752;28;20046;-73
2022/06/14 11:27:57;;;;;;;63.42;7.72;;;;;;;34.82;22.82;98883.81;4893501;29;20091;-74
2022/06/14 11:30:35;;;;;;;23.00;6.45;;;;;;;33.42;24.58;98882.56;4891712;29;20052;-74
2022/06/14 11:33:12;;;;;;;20.02;6.88;;;;;;;32.56;26.29;98883.91;4890989;29;20060;-74
2022/06/14 11:35:55;;;;;;;16.38;6.00;;;;;;;33.19;24.65;98887.31;4891824;29;20142;-74
2022/06/14 11:38:47;;;;;;;11.10;6.03;;;;;;;33.17;24.74;98892.63;4875611;29;20060;-74
2022/06/14 11:54:22;;;;;;;15.90;5.13;;;;;;;33.19;24.90;98867.50;4290349;28;10000666;-74
2022/06/14 12:01:21;;;;;;;14.10;5.60;;;;;;;32.53;25.33;98854.47;5046308;28;20759;-73
2022/06/14 12:04:07;;;;;;;14.55;5.57;;;;;;;32.34;25.99;98858.28;5042614;28;20091;-72
2022/06/14 12:06:42;;;;;;;22.20;6.68;;;;;;;33.18;25.02;98862.31;5044493;28;20495;-75
2022/06/14 12:13:49;;;;;;;19.08;5.15;;;;;;;32.09;26.68;98863.38;5047099;28;20106;-74
2022/06/14 12:32:48;;;;;;;35.67;6.00;;;;;;;35.66;22.15;98847.22;5046569;28;20056;-74
2022/06/14 12:35:47;;;;;;;19.23;5.80;;;;;;;35.64;22.39;98835.53;5021893;28;20528;-73
2022/06/14 12:38:19;;;;;;;14.25;5.72;;;;;;;35.90;22.44;98829.53;5030290;28;20527;-75
2022/06/14 12:40:51;;;;;;;17.45;5.40;;;;;;;36.53;21.35;98817.84;5020303;28;20480;-74
2022/06/14 12:43:22;;;;;;;20.52;5.13;;;;;;;35.74;22.37;98828.59;5041444;28;20140;-75
2022/06/14 12:45:52;;;;;;;13.57;4.53;;;;;;;34.48;22.79;98812.50;5022946;28;20476;-75
2022/06/14 12:48:36;;;;;;;36.75;5.80;;;;;;;34.09;23.52;98817.56;5041689;28;20049;-74
2022/06/14 12:55:35;;;;;;;28.13;4.90;;;;;;;34.13;23.54;98809.75;5022037;28;20144;-74
2022/06/14 12:58:28;;;;;;;18.55;4.68;;;;;;;32.34;25.82;98825.16;5021989;28;20420;-74
2022/06/14 13:01:03;;;;;;;24.75;4.85;;;;;;;32.39;26.24;98832.28;5019893;28;20496;-74
2022/06/14 13:03:45;;;;;;;17.83;4.68;;;;;;;30.93;28.19;98823.03;5022307;28;20139;-74
2022/06/14 13:06:59;;;;;;;13.43;4.78;;;;;;;29.51;30.09;98824.97;5032227;28;20487;-74
2022/06/14 13:18:03;;;;;;;11.87;4.67;;;;;;;32.72;26.37;98815.16;5044709;28;20122;-74
2022/06/14 13:29:41;;;;;;;20.25;5.10;;;;;;;33.64;23.80;98803.34;5048108;28;20055;-75
2022/06/14 13:32:24;;;;;;;19.08;5.43;;;;;;;34.45;23.23;98813.41;5021587;28;20052;-75
2022/06/14 13:35:01;;;;;;;25.10;5.25;;;;;;;34.13;23.86;98794.78;5048092;28;20060;-75
2022/06/14 13:54:21;;;;;;;15.30;4.72;;;;;;;29.72;31.72;98773.13;5053280;28;20148;-69
2022/06/14 13:56:55;;;;;;;17.83;4.90;;;;;;;29.19;32.31;98758.75;5051616;28;20072;-70
2022/06/14 13:59:25;;;;;;;18.02;5.53;;;;;;;28.81;32.92;98762.56;5061562;28;20194;-69
2022/06/14 14:01:58;;;;;;;22.83;5.40;;;;;;;28.51;33.84;98766.97;5056981;28;20476;-70
2022/06/14 14:12:46;;;;;;;24.70;5.97;;;;;;;27.18;35.54;98759.53;5017484;28;20063;-70
2022/06/14 14:15:23;;;;;;;23.52;6.05;;;;;;;26.95;36.46;98758.09;5003251;28;20041;-69
2022/06/14 14:21:56;;;;;;;17.33;5.43;;;;;;;26.61;37.52;98739.09;4975413;28;20815;-71
2022/06/14 14:28:50;;;;;;;;;;;;;;;31.12;30.02;98739.56;4977753;28;20144;-70
2022/06/14 14:31:32;;;;;;;20.77;5.40;;;;;;;29.82;31.76;98741.16;4975881;28;19926;-69
2022/06/14 14:34:05;;;;;;;22.98;6.05;;;;;;;28.19;34.56;98735.28;4968234;28;20511;-69
2022/06/14 14:52:14;;;;;;;44.45;6.28;;;;;;;25.54;40.30;98737.09;5058170;28;20054;-71
2022/06/14 14:54:49;;;;;;;17.25;5.03;;;;;;;25.38;40.59;98771.06;5057011;28;20113;-70
2022/06/14 14:57:26;;;;;;;28.52;5.80;;;;;;;24.97;43.08;98760.25;5060999;28;20048;-69
2022/06/14 15:00:01;;;;;;;26.85;5.82;;;;;;;24.07;45.09;98769.97;5046952;28;20512;-69
2022/06/14 15:05:37;;;;;;;59.30;6.45;;;;;;;23.04;50.22;98778.78;5065734;28;20056;-76
2022/06/14 15:08:17;;;;;;;41.03;6.82;;;;;;;22.59;52.20;98778.75;5063800;28;20048;-74
2022/06/14 15:11:02;;;;;;;28.45;5.63;;;;;;;22.24;54.22;98774.31;5063573;28;20047;-74
2022/06/14 15:13:42;;;;;;;49.42;6.72;;;;;;;22.09;55.50;98774.16;5062574;28;20381;-74
2022/06/14 15:16:17;;;;;;;34.25;6.55;;;;;;;21.94;57.10;98777.94;5064631;28;20066;-74